Time;durP1;ratioP1;P1;durP2;ratioP2;P2;SDS_P1;SDS_P2;PMS_P1;PMS_P2;Temp;Humidity;BMP_temperature;BMP_pressure;BME280_temperature;BME280_humidity;BME280_pressure;Samples;Min_cycle;Max_cycle;Signal;HPM_P1;HPM_P2
2021/01/12 00:01:44;;;;;;;4.17;3.77;;;1.30;99.90;;;;;;4923484;28;20532;-80
2021/01/12 00:04:10;;;;;;;4.20;3.80;;;1.30;99.90;;;;;;4914313;29;20972;-76
2021/01/12 00:06:36;;;;;;;4.80;3.97;;;1.30;99.90;;;;;;4945442;28;20407;-76
2021/01/12 00:09:02;;;;;;;4.97;4.00;;;1.30;99.90;;;;;;4946936;28;20467;-78
2021/01/12 00:11:28;;;;;;;5.95;4.10;;;1.40;99.90;;;;;;4916008;29;20403;-76
2021/01/12 00:13:53;;;;;;;4.95;3.90;;;1.30;99.90;;;;;;4948165;28;20395;-77
2021/01/12 00:16:21;;;;;;;5.00;3.80;;;1.40;99.90;;;;;;4929966;28;20420;-76
2021/01/12 00:18:49;;;;;;;4.57;3.78;;;1.40;99.90;;;;;;4925353;29;20415;-77
2021/01/12 00:21:15;;;;;;;4.87;3.83;;;1.30;99.90;;;;;;4952272;28;20937;-77
2021/01/12 00:23:41;;;;;;;5.47;4.07;;;1.40;99.90;;;;;;4942534;28;20409;-79
2021/01/12 00:26:07;;;;;;;4.73;3.80;;;1.30;99.90;;;;;;4945697;28;20398;-79
2021/01/12 00:28:34;;;;;;;4.10;3.70;;;1.40;99.90;;;;;;4933608;29;20411;-82
2021/01/12 00:31:04;;;;;;;4.53;3.90;;;1.40;99.90;;;;;;4916485;28;20906;-75
2021/01/12 00:33:30;;;;;;;5.60;3.93;;;1.40;99.90;;;;;;4954076;28;20455;-78
2021/01/12 00:35:56;;;;;;;5.55;3.55;;;1.50;99.90;;;;;;4946391;28;20395;-78
2021/01/12 00:38:22;;;;;;;5.18;3.92;;;1.40;99.90;;;;;;4932170;29;20403;-84
2021/01/12 00:40:47;;;;;;;4.43;3.73;;;1.40;99.90;;;;;;4912884;29;20404;-80
2021/01/12 00:43:13;;;;;;;3.80;3.50;;;1.60;99.90;;;;;;4929465;28;20421;-83
2021/01/12 00:45:39;;;;;;;4.88;3.63;;;1.40;99.90;;;;;;4935266;29;20985;-84
2021/01/12 00:48:05;;;;;;;4.87;4.20;;;1.40;99.90;;;;;;4946060;28;20439;-80
2021/01/12 00:50:30;;;;;;;4.63;3.77;;;1.50;99.90;;;;;;4951394;28;20515;-80
2021/01/12 00:52:56;;;;;;;4.97;3.77;;;1.50;99.90;;;;;;4948047;29;20443;-79
2021/01/12 00:55:22;;;;;;;4.32;3.60;;;1.50;99.90;;;;;;4932404;29;20427;-83
2021/01/12 00:57:47;;;;;;;3.87;3.50;;;1.50;99.90;;;;;;4937512;29;20817;-85
2021/01/12 01:00:14;;;;;;;5.20;3.43;;;1.50;99.90;;;;;;4948268;28;20396;-83
2021/01/12 01:02:39;;;;;;;5.45;4.10;;;1.60;99.90;;;;;;4933956;29;20481;-82
2021/01/12 01:05:06;;;;;;;4.00;3.60;;;1.60;99.90;;;;;;4946980;29;20419;-84
2021/01/12 01:07:32;;;;;;;4.70;4.22;;;1.60;99.90;;;;;;4931378;28;20462;-84
2021/01/12 01:09:58;;;;;;;4.57;4.05;;;1.60;99.90;;;;;;4935820;28;20397;-85
2021/01/12 01:12:23;;;;;;;3.90;3.47;;;1.60;99.90;;;;;;4932011;28;20418;-84
2021/01/12 01:14:49;;;;;;;4.10;3.70;;;1.60;99.90;;;;;;4934405;29;20432;-79
2021/01/12 01:17:15;;;;;;;4.20;3.47;;;1.60;99.90;;;;;;4928868;29;20400;-81
2021/01/12 01:19:40;;;;;;;4.37;3.60;;;1.60;99.90;;;;;;4926027;29;20403;-84
2021/01/12 01:22:06;;;;;;;3.80;3.50;;;1.60;99.90;;;;;;4931071;29;20762;-76
2021/01/12 01:24:32;;;;;;;5.75;4.22;;;1.60;99.90;;;;;;4930352;28;20455;-78
2021/01/12 01:26:58;;;;;;;4.37;3.77;;;1.60;99.90;;;;;;4913085;29;20399;-79
2021/01/12 01:29:23;;;;;;;4.13;3.73;;;1.60;99.90;;;;;;4926434;28;20417;-77
2021/01/12 01:31:49;;;;;;;4.90;3.90;;;1.60;99.90;;;;;;4936519;28;20419;-77
2021/01/12 01:34:15;;;;;;;4.60;4.10;;;1.60;99.90;;;;;;4919753;29;20409;-85
2021/01/12 01:36:40;;;;;;;4.50;3.65;;;1.60;99.90;;;;;;4936462;28;20416;-79
2021/01/12 01:39:06;;;;;;;4.50;3.77;;;1.80;99.90;;;;;;4911086;28;20434;-78
2021/01/12 01:41:32;;;;;;;4.55;3.85;;;1.80;99.90;;;;;;4917008;28;20419;-78
2021/01/12 01:43:57;;;;;;;4.88;3.67;;;1.60;99.90;;;;;;4929091;28;20395;-81
2021/01/12 01:46:23;;;;;;;3.83;3.43;;;1.70;99.90;;;;;;4928529;29;20415;-78
2021/01/12 01:48:49;;;;;;;4.67;3.70;;;1.70;99.90;;;;;;4929875;29;20420;-78
2021/01/12 01:51:15;;;;;;;4.45;4.03;;;1.70;99.90;;;;;;4919448;29;20433;-81
2021/01/12 01:53:41;;;;;;;5.25;4.07;;;1.70;99.90;;;;;;4932813;28;20415;-77
2021/01/12 01:56:06;;;;;;;4.55;4.15;;;1.80;99.90;;;;;;4926852;29;20408;-81
2021/01/12 01:58:42;;;;;;;5.32;4.28;;;1.70;99.90;;;;;;4937907;28;20422;-83
2021/01/12 02:01:11;;;;;;;4.88;4.00;;;1.70;99.90;;;;;;4934707;28;20418;-82
2021/01/12 02:03:46;;;;;;;4.75;4.03;;;1.80;99.90;;;;;;4908451;28;20411;-80
2021/01/12 02:06:18;;;;;;;4.38;3.67;;;1.80;99.90;;;;;;4925922;28;20445;-78
2021/01/12 02:08:53;;;;;;;5.43;4.20;;;1.80;99.90;;;;;;4943995;28;20435;-81
2021/01/12 02:11:19;;;;;;;4.03;3.60;;;1.80;99.90;;;;;;4907194;29;20430;-83
2021/01/12 02:13:45;;;;;;;6.10;4.17;;;1.80;99.90;;;;;;4926574;29;20401;-79
2021/01/12 02:16:10;;;;;;;5.30;4.10;;;2.00;99.90;;;;;;4918836;28;20416;-78
2021/01/12 02:18:37;;;;;;;5.05;4.10;;;1.80;99.90;;;;;;4929897;28;20535;-78
2021/01/12 02:21:03;;;;;;;5.35;4.20;;;1.80;99.90;;;;;;4919508;28;20465;-78
2021/01/12 02:23:34;;;;;;;4.53;4.10;;;1.80;99.90;;;;;;4916542;28;20417;-77
2021/01/12 02:25:59;;;;;;;5.28;3.90;;;1.80;99.90;;;;;;4903103;29;20926;-84
2021/01/12 02:28:25;;;;;;;4.20;3.80;;;1.90;99.90;;;;;;4945958;28;20416;-79
2021/01/12 02:30:51;;;;;;;6.07;4.03;;;1.90;99.90;;;;;;4936562;28;20407;-80
2021/01/12 02:33:17;;;;;;;4.65;3.88;;;1.90;99.90;;;;;;4895251;29;20425;-85
2021/01/12 02:35:47;;;;;;;4.80;4.22;;;1.90;99.90;;;;;;4927819;29;20921;-81
2021/01/12 02:38:13;;;;;;;6.45;4.55;;;2.00;99.90;;;;;;4899521;28;20966;-79
2021/01/12 02:40:39;;;;;;;4.40;4.00;;;2.00;99.90;;;;;;4931891;28;20475;-79
2021/01/12 02:43:04;;;;;;;7.03;4.32;;;2.00;99.90;;;;;;4929600;29;20407;-78
2021/01/12 02:45:31;;;;;;;4.72;3.88;;;2.00;99.90;;;;;;4929476;29;20421;-85
2021/01/12 02:47:59;;;;;;;4.55;4.15;;;2.00;99.90;;;;;;4931774;29;21140;-79
2021/01/12 02:50:25;;;;;;;5.10;4.53;;;2.10;99.90;;;;;;4945332;28;20474;-79
2021/01/12 02:52:51;;;;;;;6.85;4.40;;;2.10;99.90;;;;;;4922802;28;20626;-80
2021/01/12 02:55:17;;;;;;;5.47;4.47;;;2.10;99.90;;;;;;4918314;28;20431;-79
2021/01/12 02:57:42;;;;;;;5.88;4.45;;;2.10;99.90;;;;;;4945872;28;20399;-80
2021/01/12 03:00:15;;;;;;;6.30;4.53;;;2.10;99.90;;;;;;4948242;28;20406;-78
2021/01/12 03:02:41;;;;;;;7.10;4.53;;;2.10;99.90;;;;;;4907601;29;20858;-79
2021/01/12 03:05:07;;;;;;;6.43;4.70;;;2.10;99.90;;;;;;4925557;29;20406;-78
2021/01/12 03:07:33;;;;;;;5.25;4.68;;;2.10;99.90;;;;;;4925872;29;20425;-81
2021/01/12 03:09:59;;;;;;;5.10;4.20;;;2.10;99.90;;;;;;4942535;28;20428;-81
2021/01/12 03:12:25;;;;;;;5.68;4.65;;;2.10;99.90;;;;;;4928092;28;20444;-78
2021/01/12 03:14:51;;;;;;;6.25;5.05;;;2.20;99.90;;;;;;4929170;29;20471;-77
2021/01/12 03:17:17;;;;;;;6.70;5.57;;;2.10;99.90;;;;;;4941892;28;20400;-81
2021/01/12 03:19:43;;;;;;;6.28;4.97;;;2.10;99.90;;;;;;4936432;29;20395;-78
2021/01/12 03:22:09;;;;;;;6.55;5.05;;;2.10;99.90;;;;;;4944906;29;20447;-79
2021/01/12 03:24:35;;;;;;;6.22;4.95;;;2.10;99.90;;;;;;4957172;28;21039;-78
2021/01/12 03:27:01;;;;;;;6.53;4.65;;;2.20;99.90;;;;;;4922724;28;20409;-83
2021/01/12 03:29:27;;;;;;;6.43;5.38;;;2.10;99.90;;;;;;4917099;28;20456;-78
2021/01/12 03:31:52;;;;;;;7.78;4.78;;;2.10;99.90;;;;;;4939660;28;20391;-82
2021/01/12 03:34:18;;;;;;;6.53;5.07;;;2.10;99.90;;;;;;4918228;29;20453;-85
2021/01/12 03:36:44;;;;;;;6.75;5.40;;;2.10;99.90;;;;;;4944222;28;21012;-81
2021/01/12 03:39:09;;;;;;;6.25;5.32;;;2.00;99.90;;;;;;4930454;28;20421;-80
2021/01/12 03:41:35;;;;;;;7.90;5.50;;;2.00;99.90;;;;;;4921935;28;20416;-78
2021/01/12 03:44:01;;;;;;;6.10;4.82;;;2.20;99.90;;;;;;4922090;29;20428;-83
2021/01/12 03:46:27;;;;;;;6.90;5.72;;;1.90;99.90;;;;;;4927623;29;20404;-83
2021/01/12 03:48:53;;;;;;;9.60;6.20;;;1.90;99.90;;;;;;4933987;28;20415;-84
2021/01/12 03:51:19;;;;;;;7.00;5.22;;;1.80;99.90;;;;;;4943547;28;20407;-82
2021/01/12 03:53:45;;;;;;;5.72;5.10;;;1.70;99.90;;;;;;4945652;29;20482;-78
2021/01/12 03:56:13;;;;;;;6.93;5.93;;;1.70;99.90;;;;;;4930401;29;20510;-77
2021/01/12 03:58:42;;;;;;;7.10;5.50;;;1.70;99.90;;;;;;4949028;28;20400;-78
2021/01/12 04:01:08;;;;;;;6.38;5.63;;;1.60;99.90;;;;;;4949864;28;20413;-81
2021/01/12 04:03:34;;;;;;;7.43;5.80;;;1.70;99.90;;;;;;4949613;28;20414;-80
2021/01/12 04:06:04;;;;;;;6.73;5.80;;;1.50;99.90;;;;;;4947811;28;20415;-82
2021/01/12 04:08:30;;;;;;;6.85;5.57;;;1.50;99.90;;;;;;4950169;29;20782;-84
2021/01/12 04:10:55;;;;;;;6.75;5.50;;;1.40;99.90;;;;;;4935022;28;20406;-82
2021/01/12 04:13:21;;;;;;;7.83;5.90;;;1.40;99.90;;;;;;4950191;28;20931;-80
2021/01/12 04:15:47;;;;;;;7.35;6.00;;;1.40;99.90;;;;;;4933050;28;20557;-82
2021/01/12 04:18:13;;;;;;;9.20;6.05;;;1.30;99.90;;;;;;4911549;29;20421;-78
2021/01/12 04:20:38;;;;;;;6.80;5.78;;;1.40;99.90;;;;;;4948580;29;20488;-79
2021/01/12 04:23:04;;;;;;;7.82;6.10;;;1.20;99.90;;;;;;4933900;28;20963;-81
2021/01/12 04:25:30;;;;;;;7.67;5.97;;;1.20;99.90;;;;;;4939005;28;20922;-78
2021/01/12 04:27:55;;;;;;;7.63;5.78;;;1.10;99.90;;;;;;4931109;28;20425;-78
2021/01/12 04:30:21;;;;;;;7.68;6.10;;;1.10;99.90;;;;;;4918924;28;20412;-79
2021/01/12 04:32:47;;;;;;;8.10;6.20;;;1.00;99.90;;;;;;4925359;28;20452;-80
2021/01/12 04:35:13;;;;;;;9.20;7.00;;;1.00;99.90;;;;;;4920426;28;21136;-78
2021/01/12 04:37:38;;;;;;;10.40;6.32;;;0.90;99.90;;;;;;4954261;28;20756;-77
2021/01/12 04:40:05;;;;;;;7.93;6.80;;;1.00;99.90;;;;;;4932158;28;20409;-78
2021/01/12 04:42:37;;;;;;;8.65;6.25;;;0.90;99.90;;;;;;4928889;29;20466;-79
2021/01/12 04:45:04;;;;;;;7.65;6.72;;;0.90;99.90;;;;;;4902154;29;20409;-79
2021/01/12 04:47:29;;;;;;;8.43;6.07;;;0.90;99.90;;;;;;4913118;28;20401;-78
2021/01/12 04:49:55;;;;;;;7.60;5.87;;;0.90;99.90;;;;;;4918075;29;21229;-77
2021/01/12 04:52:21;;;;;;;8.33;6.17;;;0.80;99.90;;;;;;4954220;28;20449;-80
2021/01/12 04:54:50;;;;;;;6.78;6.07;;;0.80;99.90;;;;;;4946501;29;20781;-78
2021/01/12 04:57:16;;;;;;;7.70;6.37;;;0.80;99.90;;;;;;4920902;29;20442;-78
2021/01/12 04:59:42;;;;;;;7.27;6.13;;;0.70;99.90;;;;;;4935995;29;20435;-76
2021/01/12 05:02:11;;;;;;;9.23;6.63;;;0.80;99.90;;;;;;4929687;29;20412;-79
2021/01/12 05:04:37;;;;;;;8.57;6.72;;;0.80;99.90;;;;;;4916849;28;20440;-76
2021/01/12 05:07:06;;;;;;;7.75;5.93;;;0.80;99.90;;;;;;4929742;29;20904;-79
2021/01/12 05:09:32;;;;;;;8.90;6.55;;;0.70;99.90;;;;;;4925840;29;20439;-77
2021/01/12 05:11:58;;;;;;;6.53;5.83;;;0.70;99.90;;;;;;4938610;29;20395;-78
2021/01/12 05:14:24;;;;;;;8.45;6.20;;;0.70;99.90;;;;;;4930867;28;20459;-78
2021/01/12 05:16:56;;;;;;;7.82;6.60;;;0.70;99.90;;;;;;4929336;29;20411;-77
2021/01/12 05:19:29;;;;;;;6.73;5.83;;;0.70;99.90;;;;;;4929524;28;20446;-80
2021/01/12 05:22:02;;;;;;;8.10;6.07;;;0.70;99.90;;;;;;4924134;29;20484;-77
2021/01/12 05:24:28;;;;;;;9.10;6.47;;;0.70;99.90;;;;;;4910947;29;20449;-82
2021/01/12 05:27:04;;;;;;;8.17;6.37;;;0.70;99.90;;;;;;4933859;28;20807;-78
2021/01/12 05:29:32;;;;;;;7.60;5.88;;;0.70;99.90;;;;;;4919837;28;20503;-81
2021/01/12 05:31:57;;;;;;;7.28;5.80;;;0.70;99.90;;;;;;4920108;29;20440;-80
2021/01/12 05:34:24;;;;;;;6.20;5.43;;;0.70;99.90;;;;;;4925587;29;20408;-80
2021/01/12 05:36:53;;;;;;;8.35;6.35;;;0.70;99.90;;;;;;4949713;28;20516;-81
2021/01/12 05:39:20;;;;;;;5.95;5.18;;;0.70;99.90;;;;;;4943748;28;20434;-78
2021/01/12 05:41:47;;;;;;;7.90;5.75;;;0.70;99.90;;;;;;4937094;29;20407;-77
2021/01/12 05:44:14;;;;;;;6.47;5.55;;;0.70;99.90;;;;;;4939459;29;20422;-74
2021/01/12 05:46:45;;;;;;;6.57;5.55;;;0.70;99.90;;;;;;4934187;29;20404;-76
2021/01/12 05:49:11;;;;;;;5.93;5.32;;;0.70;99.90;;;;;;4933804;29;20419;-74
2021/01/12 05:51:43;;;;;;;6.57;5.35;;;0.70;99.90;;;;;;4952141;28;20423;-73
2021/01/12 05:54:09;;;;;;;7.03;5.68;;;0.70;99.90;;;;;;4949615;28;20812;-76
2021/01/12 05:56:36;;;;;;;8.45;5.32;;;0.70;99.90;;;;;;4930849;28;20535;-74
2021/01/12 05:59:01;;;;;;;5.60;5.05;;;0.70;99.90;;;;;;4936183;29;20463;-74
2021/01/12 06:01:43;;;;;;;5.13;4.63;;;0.70;99.90;;;;;;4933402;29;20406;-74
2021/01/12 06:04:09;;;;;;;5.70;5.13;;;0.70;99.90;;;;;;4919948;28;21070;-74
2021/01/12 06:06:39;;;;;;;5.88;4.97;;;0.70;99.90;;;;;;4929377;28;20408;-74
2021/01/12 06:09:08;;;;;;;5.18;4.68;;;0.60;99.90;;;;;;4934884;29;20935;-74
2021/01/12 06:11:35;;;;;;;5.28;4.70;;;0.70;99.90;;;;;;4928457;28;20438;-76
2021/01/12 06:14:17;;;;;;;6.05;4.60;;;0.70;99.90;;;;;;4942156;28;20403;-77
2021/01/12 06:16:45;;;;;;;5.65;4.82;;;0.60;99.90;;;;;;4928093;28;20413;-75
2021/01/12 06:19:20;;;;;;;6.30;4.65;;;0.70;99.90;;;;;;4938251;28;20416;-75
2021/01/12 06:21:55;;;;;;;5.78;5.10;;;0.70;99.90;;;;;;4943647;28;20420;-77
2021/01/12 06:24:40;;;;;;;5.15;4.65;;;0.60;99.90;;;;;;4924899;28;20468;-76
2021/01/12 06:27:19;;;;;;;4.87;4.37;;;0.70;99.90;;;;;;4946331;29;20404;-79
2021/01/12 06:29:48;;;;;;;5.20;4.70;;;0.60;99.90;;;;;;4920100;29;20418;-86
2021/01/12 06:32:21;;;;;;;5.00;4.35;;;0.60;99.90;;;;;;4934266;28;20458;-83
2021/01/12 06:34:49;;;;;;;5.00;4.50;;;0.60;99.90;;;;;;4942938;28;20409;-80
2021/01/12 06:37:15;;;;;;;4.97;4.35;;;0.60;99.90;;;;;;4926147;29;20414;-81
2021/01/12 06:39:41;;;;;;;5.13;4.63;;;0.60;99.90;;;;;;4918674;29;20769;-75
2021/01/12 06:42:08;;;;;;;4.50;4.10;;;0.70;99.90;;;;;;4925776;29;20413;-77
2021/01/12 06:44:34;;;;;;;4.47;3.90;;;0.70;99.90;;;;;;4924987;29;20409;-75
2021/01/12 06:47:00;;;;;;;4.97;4.47;;;0.70;99.90;;;;;;4932721;28;20405;-76
2021/01/12 06:49:27;;;;;;;4.22;3.80;;;0.70;99.90;;;;;;4895378;29;20743;-76
2021/01/12 06:52:02;;;;;;;4.80;4.30;;;0.70;99.90;;;;;;4928226;29;20413;-76
2021/01/12 06:54:32;;;;;;;4.90;4.40;;;0.70;99.90;;;;;;4923286;28;20405;-75
2021/01/12 06:56:59;;;;;;;4.68;4.07;;;0.70;99.90;;;;;;4949902;28;20458;-74
2021/01/12 06:59:32;;;;;;;5.97;4.65;;;0.70;99.90;;;;;;4943098;29;20401;-74
2021/01/12 07:01:58;;;;;;;6.18;4.40;;;0.70;99.90;;;;;;4944115;28;20394;-74
2021/01/12 07:04:29;;;;;;;4.43;4.00;;;0.70;99.90;;;;;;4933946;28;20402;-76
2021/01/12 07:06:57;;;;;;;4.50;4.07;;;0.70;99.90;;;;;;4944743;28;20416;-73
2021/01/12 07:09:24;;;;;;;6.18;4.45;;;0.70;99.90;;;;;;4944851;28;20507;-75
2021/01/12 07:11:49;;;;;;;5.20;4.70;;;0.70;99.90;;;;;;4930689;28;20400;-75
2021/01/12 07:14:24;;;;;;;5.40;4.70;;;0.80;99.90;;;;;;4931057;28;20410;-76
2021/01/12 07:16:50;;;;;;;5.40;4.68;;;0.70;99.90;;;;;;4952925;28;20411;-78
2021/01/12 07:19:18;;;;;;;6.07;5.30;;;0.70;99.90;;;;;;4948897;28;20400;-76
2021/01/12 07:21:44;;;;;;;5.57;4.72;;;0.70;99.90;;;;;;4914977;29;20529;-75
2021/01/12 07:24:15;;;;;;;5.93;4.93;;;0.80;99.90;;;;;;4927428;29;20409;-76
2021/01/12 07:26:41;;;;;;;5.45;4.70;;;0.80;99.90;;;;;;4904078;29;20404;-79
2021/01/12 07:29:08;;;;;;;6.03;4.80;;;0.80;99.90;;;;;;4927340;28;20964;-77
2021/01/12 07:31:34;;;;;;;5.97;5.32;;;0.80;99.90;;;;;;4930087;28;20425;-80
2021/01/12 07:34:00;;;;;;;5.90;5.00;;;0.80;99.90;;;;;;4949028;28;20909;-78
2021/01/12 07:36:26;;;;;;;5.27;4.77;;;0.70;99.90;;;;;;4935962;28;20419;-76
2021/01/12 07:38:52;;;;;;;6.35;5.25;;;0.80;99.90;;;;;;4940313;28;20397;-78
2021/01/12 07:41:18;;;;;;;6.10;5.50;;;0.70;99.90;;;;;;4926056;29;20984;-80
2021/01/12 07:43:44;;;;;;;5.63;5.10;;;0.80;99.90;;;;;;4902172;29;20502;-75
2021/01/12 07:46:10;;;;;;;6.53;5.40;;;0.80;99.90;;;;;;4896972;29;20416;-76
2021/01/12 07:48:36;;;;;;;6.40;5.22;;;0.80;99.90;;;;;;4927071;29;20500;-75
2021/01/12 07:51:02;;;;;;;6.88;5.63;;;0.80;99.90;;;;;;4928461;28;20500;-76
2021/01/12 07:53:30;;;;;;;6.85;5.90;;;0.80;99.90;;;;;;4929172;29;20395;-78
2021/01/12 07:55:56;;;;;;;6.97;5.47;;;0.80;99.90;;;;;;4930010;29;20455;-78
2021/01/12 07:58:22;;;;;;;6.83;4.93;;;0.80;99.90;;;;;;4928589;29;20419;-76
2021/01/12 08:00:48;;;;;;;6.07;4.65;;;0.80;99.90;;;;;;4906921;29;20478;-76
2021/01/12 08:03:14;;;;;;;7.60;5.80;;;0.90;99.90;;;;;;4932745;29;20400;-76
2021/01/12 08:05:40;;;;;;;5.38;4.50;;;0.90;99.90;;;;;;4931231;29;20537;-80
2021/01/12 08:08:06;;;;;;;5.60;4.75;;;0.80;99.90;;;;;;4946231;29;20939;-78
2021/01/12 08:10:34;;;;;;;6.37;5.47;;;0.90;99.90;;;;;;4946495;28;20482;-79
2021/01/12 08:13:12;;;;;;;6.13;4.53;;;0.90;99.90;;;;;;4946365;28;20480;-78
2021/01/12 08:15:40;;;;;;;6.85;5.22;;;0.80;99.90;;;;;;4932937;29;20430;-78
2021/01/12 08:18:10;;;;;;;6.28;5.68;;;0.80;99.90;;;;;;4939721;28;20409;-79
2021/01/12 08:20:35;;;;;;;6.88;5.45;;;0.80;99.90;;;;;;4945104;29;20470;-79
2021/01/12 08:23:01;;;;;;;6.28;5.65;;;0.90;99.90;;;;;;4929879;28;20499;-80
2021/01/12 08:25:27;;;;;;;6.63;5.05;;;0.80;99.90;;;;;;4942241;28;20400;-77
2021/01/12 08:27:54;;;;;;;7.45;5.45;;;0.80;99.90;;;;;;4944106;28;20478;-81
2021/01/12 08:30:21;;;;;;;6.18;5.32;;;0.80;99.90;;;;;;4928578;29;20482;-80
2021/01/12 08:32:56;;;;;;;5.70;4.30;;;0.80;99.90;;;;;;4929044;29;20414;-80
2021/01/12 08:35:25;;;;;;;5.65;4.35;;;0.80;99.90;;;;;;4922763;29;20406;-80
2021/01/12 08:37:51;;;;;;;4.68;4.28;;;0.80;99.90;;;;;;4950004;28;20438;-81
2021/01/12 08:40:16;;;;;;;4.30;3.90;;;0.80;99.90;;;;;;4928668;29;20480;-86
2021/01/12 08:42:43;;;;;;;4.70;4.30;;;0.80;99.90;;;;;;4929472;28;20412;-79
2021/01/12 08:45:16;;;;;;;4.95;4.28;;;0.80;99.90;;;;;;4951867;28;21078;-80
2021/01/12 08:47:42;;;;;;;5.88;4.85;;;0.80;99.90;;;;;;4936423;29;20951;-86
2021/01/12 08:50:08;;;;;;;5.30;3.50;;;0.90;99.90;;;;;;4935275;29;20427;-86
2021/01/12 08:52:36;;;;;;;3.88;3.58;;;0.80;99.90;;;;;;4932402;28;20407;-76
2021/01/12 08:55:02;;;;;;;4.18;3.78;;;0.90;99.90;;;;;;4945003;28;20410;-80
2021/01/12 08:57:28;;;;;;;3.83;3.40;;;0.80;99.90;;;;;;4930494;28;20464;-77
2021/01/12 08:59:53;;;;;;;3.80;3.50;;;0.80;99.90;;;;;;4927644;29;20797;-77
2021/01/12 09:02:20;;;;;;;4.30;3.72;;;0.80;99.90;;;;;;4935249;28;20414;-77
2021/01/12 09:04:46;;;;;;;4.30;3.63;;;0.80;99.90;;;;;;4959621;28;20400;-77
2021/01/12 09:07:15;;;;;;;3.50;3.20;;;0.80;99.90;;;;;;4937244;29;20408;-74
2021/01/12 09:09:50;;;;;;;3.20;2.90;;;0.80;99.90;;;;;;4939940;28;20497;-77
2021/01/12 09:12:16;;;;;;;3.00;2.72;;;0.80;99.90;;;;;;4947712;29;20896;-82
2021/01/12 09:14:46;;;;;;;2.85;2.63;;;0.80;99.90;;;;;;4943462;29;20452;-79
2021/01/12 09:17:14;;;;;;;3.70;3.05;;;0.80;99.90;;;;;;4930903;29;20403;-80
2021/01/12 09:19:40;;;;;;;3.60;3.30;;;0.90;99.90;;;;;;4927374;28;20397;-78
2021/01/12 09:22:15;;;;;;;5.17;4.27;;;0.80;99.90;;;;;;4919911;29;20411;-76
2021/01/12 09:24:51;;;;;;;3.33;3.00;;;0.80;99.90;;;;;;4912991;29;20448;-82
2021/01/12 09:27:24;;;;;;;3.67;3.30;;;0.80;99.90;;;;;;4945943;29;20784;-80
2021/01/12 09:29:50;;;;;;;3.13;2.83;;;0.80;99.90;;;;;;4930554;28;20483;-80
2021/01/12 09:32:29;;;;;;;2.78;2.53;;;0.80;99.90;;;;;;4945023;28;20538;-76
2021/01/12 09:34:56;;;;;;;3.10;2.80;;;0.90;99.90;;;;;;4948689;28;20407;-82
2021/01/12 09:37:21;;;;;;;2.80;2.60;;;0.80;99.90;;;;;;4933540;28;20495;-79
2021/01/12 09:39:51;;;;;;;3.05;2.75;;;0.80;99.90;;;;;;4913294;29;20521;-77
2021/01/12 09:42:19;;;;;;;2.67;2.47;;;0.80;99.90;;;;;;4913822;28;20411;-84
2021/01/12 09:44:45;;;;;;;2.78;2.58;;;0.80;99.90;;;;;;4941852;28;20452;-79
2021/01/12 09:47:10;;;;;;;2.70;2.50;;;0.80;99.90;;;;;;4953305;28;20414;-76
2021/01/12 09:49:36;;;;;;;2.65;2.45;;;0.80;99.90;;;;;;4911525;29;21153;-77
2021/01/12 09:52:02;;;;;;;2.57;2.37;;;0.80;99.90;;;;;;4927062;29;20417;-78
2021/01/12 09:54:28;;;;;;;2.77;2.57;;;0.90;99.90;;;;;;4917370;29;20427;-84
2021/01/12 09:56:53;;;;;;;2.60;2.25;;;0.90;99.90;;;;;;4935093;28;20439;-79
2021/01/12 09:59:19;;;;;;;3.30;2.95;;;0.90;99.90;;;;;;4944953;28;20470;-75
2021/01/12 10:01:45;;;;;;;2.63;2.43;;;0.90;99.90;;;;;;4928437;29;20396;-76
2021/01/12 10:04:10;;;;;;;2.40;2.20;;;0.90;99.90;;;;;;4929383;28;20415;-79
2021/01/12 10:06:36;;;;;;;2.92;2.53;;;0.90;99.90;;;;;;4935905;28;20416;-76
2021/01/12 10:09:02;;;;;;;3.03;2.13;;;0.90;99.90;;;;;;4963936;28;20493;-77
2021/01/12 10:11:28;;;;;;;2.30;2.10;;;0.90;99.90;;;;;;4897614;29;20397;-76
2021/01/12 10:13:54;;;;;;;2.22;2.03;;;0.90;99.90;;;;;;4928468;28;20878;-77
2021/01/12 10:16:22;;;;;;;3.27;2.37;;;0.90;99.90;;;;;;4943951;28;20494;-81
2021/01/12 10:18:48;;;;;;;3.38;2.08;;;0.90;99.90;;;;;;4929057;28;20983;-81
2021/01/12 10:21:16;;;;;;;2.87;2.20;;;0.90;99.90;;;;;;4928530;29;20479;-77
2021/01/12 10:23:41;;;;;;;2.38;2.17;;;1.00;99.90;;;;;;4940717;28;20407;-85
2021/01/12 10:26:15;;;;;;;2.30;2.10;;;1.00;99.90;;;;;;4919335;29;20407;-76
2021/01/12 10:28:41;;;;;;;2.17;2.00;;;1.00;99.90;;;;;;4928831;29;20418;-83
2021/01/12 10:31:09;;;;;;;2.70;2.20;;;1.10;99.90;;;;;;4927644;28;20434;-79
2021/01/12 10:33:34;;;;;;;2.85;2.55;;;1.00;99.90;;;;;;4944547;28;20954;-80
2021/01/12 10:36:00;;;;;;;2.30;2.10;;;1.00;99.90;;;;;;4947884;28;20394;-82
2021/01/12 10:38:26;;;;;;;2.10;1.92;;;1.00;99.90;;;;;;4944279;28;20393;-80
2021/01/12 10:40:51;;;;;;;2.60;2.40;;;1.10;99.90;;;;;;4928530;29;21329;-82
2021/01/12 10:43:17;;;;;;;2.97;2.50;;;1.10;99.90;;;;;;4927843;29;20428;-78
2021/01/12 10:45:43;;;;;;;2.40;2.20;;;1.10;99.90;;;;;;4944347;28;20399;-77
2021/01/12 10:48:08;;;;;;;2.13;1.93;;;1.20;99.90;;;;;;4944048;29;20431;-82
2021/01/12 10:50:34;;;;;;;2.10;1.90;;;1.20;99.90;;;;;;4945133;28;20410;-79
2021/01/12 10:53:00;;;;;;;2.00;1.90;;;1.20;99.90;;;;;;4928383;28;20407;-78
2021/01/12 10:55:25;;;;;;;2.10;2.00;;;1.20;99.90;;;;;;4911794;28;20874;-77
2021/01/12 10:57:51;;;;;;;2.07;1.93;;;1.30;99.90;;;;;;4938089;28;20406;-83
2021/01/12 11:00:18;;;;;;;1.90;1.80;;;1.30;99.90;;;;;;4926298;28;20417;-81
2021/01/12 11:02:43;;;;;;;2.28;2.08;;;1.30;99.90;;;;;;4939446;28;20396;-76
2021/01/12 11:05:09;;;;;;;1.83;1.73;;;1.30;99.90;;;;;;4944248;28;20831;-81
2021/01/12 11:07:38;;;;;;;2.53;2.10;;;1.30;99.90;;;;;;4927801;28;20550;-76
2021/01/12 11:10:04;;;;;;;1.90;1.80;;;1.30;99.90;;;;;;4926085;28;20463;-83
2021/01/12 11:12:30;;;;;;;2.00;1.80;;;1.20;99.90;;;;;;4937771;28;20763;-80
2021/01/12 11:14:56;;;;;;;2.30;2.10;;;1.30;99.90;;;;;;4925505;28;20399;-81
2021/01/12 11:17:21;;;;;;;2.35;1.90;;;1.30;99.90;;;;;;4929894;28;20421;-84
2021/01/12 11:19:48;;;;;;;2.10;1.90;;;1.30;99.90;;;;;;4895668;29;20380;-84
2021/01/12 11:22:14;;;;;;;1.92;1.60;;;1.30;99.90;;;;;;4920567;28;20469;-81
2021/01/12 11:24:39;;;;;;;1.65;1.55;;;1.30;99.90;;;;;;4931727;28;20797;-84
2021/01/12 11:27:05;;;;;;;1.60;1.50;;;1.30;99.90;;;;;;4925059;29;20405;-78
2021/01/12 11:29:31;;;;;;;2.13;1.88;;;1.30;99.90;;;;;;4908006;29;20418;-79
2021/01/12 11:31:57;;;;;;;1.80;1.70;;;1.30;99.90;;;;;;4938397;28;20415;-76
2021/01/12 11:34:23;;;;;;;2.00;1.80;;;1.40;99.90;;;;;;4943539;28;20785;-79
2021/01/12 11:36:48;;;;;;;1.70;1.60;;;1.30;99.90;;;;;;4936053;28;20417;-82
2021/01/12 11:39:16;;;;;;;1.73;1.63;;;1.40;99.90;;;;;;4939207;28;20408;-76
2021/01/12 11:41:45;;;;;;;1.70;1.60;;;1.30;99.90;;;;;;4927268;29;20457;-76
2021/01/12 11:44:11;;;;;;;1.40;1.30;;;1.40;99.90;;;;;;4928715;29;20436;-78
2021/01/12 11:46:36;;;;;;;1.90;1.80;;;1.30;99.90;;;;;;4918878;29;20408;-78
2021/01/12 11:49:02;;;;;;;1.55;1.40;;;1.40;99.90;;;;;;4927320;29;20402;-78
2021/01/12 11:51:41;;;;;;;1.70;1.60;;;1.40;99.90;;;;;;4926619;28;20956;-77
2021/01/12 11:54:07;;;;;;;2.10;2.00;;;1.50;99.90;;;;;;4932214;28;20468;-79
2021/01/12 11:56:33;;;;;;;2.13;2.03;;;1.50;99.90;;;;;;4951918;28;20402;-83
2021/01/12 11:58:58;;;;;;;2.65;2.42;;;1.50;99.90;;;;;;4940606;28;20398;-84
2021/01/12 12:01:24;;;;;;;5.03;3.13;;;1.50;99.90;;;;;;4928237;29;20758;-82
2021/01/12 12:03:50;;;;;;;5.50;4.18;;;1.50;99.90;;;;;;4928311;28;20502;-83
2021/01/12 12:06:16;;;;;;;3.37;2.60;;;1.50;99.90;;;;;;4918322;29;20775;-81
2021/01/12 12:08:41;;;;;;;3.22;2.63;;;1.50;99.90;;;;;;4939488;29;20474;-78
2021/01/12 12:11:07;;;;;;;2.55;2.30;;;1.60;99.90;;;;;;4935086;28;20999;-80
2021/01/12 12:13:39;;;;;;;2.47;2.27;;;1.50;99.90;;;;;;4925154;28;20399;-78
2021/01/12 12:16:07;;;;;;;3.08;2.88;;;1.60;99.90;;;;;;4938800;28;20408;-85
2021/01/12 12:18:32;;;;;;;2.90;2.55;;;1.60;99.90;;;;;;4958952;28;20398;-83
2021/01/12 12:20:58;;;;;;;2.35;2.15;;;1.60;99.90;;;;;;4946121;28;20928;-77
2021/01/12 12:23:24;;;;;;;2.88;2.17;;;1.60;99.90;;;;;;4931223;29;20880;-78
2021/01/12 12:25:49;;;;;;;1.50;1.40;;;1.60;99.90;;;;;;4947502;28;20406;-81
2021/01/12 12:28:15;;;;;;;1.60;1.50;;;1.60;99.90;;;;;;4954477;28;20922;-81
2021/01/12 12:30:41;;;;;;;1.38;1.27;;;1.60;99.90;;;;;;4926838;28;22119;-82
2021/01/12 12:33:06;;;;;;;1.90;1.80;;;1.50;99.90;;;;;;4918883;29;20490;-79
2021/01/12 12:35:32;;;;;;;1.42;1.35;;;1.60;99.90;;;;;;4917743;29;20480;-79
2021/01/12 12:37:58;;;;;;;1.53;1.43;;;1.60;99.90;;;;;;4896445;29;20401;-81
2021/01/12 12:40:23;;;;;;;1.63;1.53;;;1.60;99.90;;;;;;4900620;29;20429;-79
2021/01/12 12:42:49;;;;;;;1.52;1.42;;;1.60;99.90;;;;;;4912555;29;20889;-85
2021/01/12 12:45:15;;;;;;;2.07;1.87;;;1.60;99.90;;;;;;4933328;28;20412;-84
2021/01/12 12:47:41;;;;;;;1.60;1.50;;;1.60;99.90;;;;;;4923613;28;20456;-78
2021/01/12 12:50:07;;;;;;;1.80;1.70;;;1.60;99.90;;;;;;4942923;28;20421;-81
2021/01/12 12:52:34;;;;;;;1.98;1.77;;;1.60;99.90;;;;;;4938168;29;20404;-81
2021/01/12 12:55:00;;;;;;;1.88;1.77;;;1.60;99.90;;;;;;4915736;29;20757;-85
2021/01/12 12:57:25;;;;;;;1.63;1.52;;;1.60;99.90;;;;;;4932855;28;20472;-80